createdAt,value
2018-03-14T00:02:00.837Z,4.90
2018-03-14T00:04:28.382Z,4.90
2018-03-14T00:06:55.957Z,4.90
2018-03-14T00:09:23.493Z,4.80
2018-03-14T00:11:51.075Z,4.80
2018-03-14T00:14:18.627Z,4.80
2018-03-14T00:16:46.165Z,4.80
2018-03-14T00:19:13.747Z,4.80
2018-03-14T00:21:41.304Z,4.90
2018-03-14T00:24:08.859Z,4.80
2018-03-14T00:26:36.411Z,4.80
2018-03-14T00:29:03.960Z,4.80
2018-03-14T00:31:31.551Z,4.80
2018-03-14T00:33:59.122Z,4.80
2018-03-14T00:36:26.681Z,4.80
2018-03-14T00:38:54.262Z,4.80
2018-03-14T00:41:21.836Z,4.80
2018-03-14T00:43:49.390Z,4.70
2018-03-14T00:46:16.989Z,4.70
2018-03-14T00:48:45.333Z,4.70
2018-03-14T00:51:12.877Z,4.70
2018-03-14T00:53:40.451Z,4.70
2018-03-14T00:56:08.003Z,4.70
2018-03-14T00:58:35.545Z,4.70
2018-03-14T01:01:03.129Z,4.70
2018-03-14T01:03:30.701Z,4.70
2018-03-14T01:05:58.241Z,4.70
2018-03-14T01:08:25.788Z,4.70
2018-03-14T01:10:53.337Z,4.70
2018-03-14T01:13:20.903Z,4.70
2018-03-14T01:15:48.487Z,4.70
2018-03-14T01:18:16.052Z,4.70
2018-03-14T01:20:43.633Z,4.70
2018-03-14T01:23:11.176Z,4.70
2018-03-14T01:25:38.723Z,4.70
2018-03-14T01:28:06.297Z,4.70
2018-03-14T01:30:33.859Z,4.70
2018-03-14T01:33:02.166Z,4.70
2018-03-14T01:35:30.503Z,4.70
2018-03-14T01:37:58.078Z,4.70
2018-03-14T01:40:25.644Z,4.70
2018-03-14T01:42:53.875Z,4.70
2018-03-14T01:45:21.443Z,4.70
2018-03-14T01:47:49.007Z,4.70
2018-03-14T01:50:16.584Z,4.70
2018-03-14T01:52:44.120Z,4.70
2018-03-14T01:55:11.689Z,4.70
2018-03-14T01:57:39.510Z,4.70
2018-03-14T02:00:07.063Z,4.60
2018-03-14T02:02:34.619Z,4.70
2018-03-14T02:05:02.186Z,4.60
2018-03-14T02:07:29.731Z,4.60
2018-03-14T02:09:57.264Z,4.60
2018-03-14T02:12:24.824Z,4.70
2018-03-14T02:14:52.386Z,4.70
2018-03-14T02:17:19.948Z,4.60
2018-03-14T02:19:47.521Z,4.60
2018-03-14T02:22:15.075Z,4.60
2018-03-14T02:24:42.637Z,4.60
2018-03-14T02:27:10.198Z,4.50
2018-03-14T02:29:37.747Z,4.50
2018-03-14T02:32:05.273Z,4.50
2018-03-14T02:34:33.625Z,4.50
2018-03-14T02:37:01.941Z,4.50
2018-03-14T02:39:29.495Z,4.50
2018-03-14T02:41:57.080Z,4.50
2018-03-14T02:44:24.636Z,4.50
2018-03-14T02:46:52.191Z,4.60
2018-03-14T02:49:19.757Z,4.60
2018-03-14T02:51:47.280Z,4.60
2018-03-14T02:54:15.582Z,4.60
2018-03-14T02:56:43.146Z,4.60
2018-03-14T02:59:10.705Z,4.60
2018-03-14T03:01:38.239Z,4.50
2018-03-14T03:04:06.549Z,4.50
2018-03-14T03:06:34.112Z,4.40
2018-03-14T03:09:01.639Z,4.40
2018-03-14T03:11:29.981Z,4.40
2018-03-14T03:13:57.502Z,4.40
2018-03-14T03:16:25.056Z,4.40
2018-03-14T03:18:52.635Z,4.30
2018-03-14T03:21:20.166Z,4.30
2018-03-14T03:23:47.695Z,4.30
2018-03-14T03:26:15.237Z,4.30
2018-03-14T03:28:42.767Z,4.30
2018-03-14T03:31:10.330Z,4.40
2018-03-14T03:33:37.852Z,4.40
2018-03-14T03:36:05.425Z,4.40
2018-03-14T03:38:32.978Z,4.40
2018-03-14T03:41:00.515Z,4.40
2018-03-14T03:43:28.817Z,4.40
2018-03-14T03:45:56.365Z,4.40
2018-03-14T03:48:23.925Z,4.50
2018-03-14T03:50:52.263Z,4.50
2018-03-14T03:53:19.803Z,4.50
2018-03-14T03:55:47.349Z,4.50
2018-03-14T03:58:14.877Z,4.50
2018-03-14T04:00:43.172Z,4.50
2018-03-14T04:03:10.721Z,4.50
2018-03-14T04:05:38.279Z,4.50
2018-03-14T04:08:05.829Z,4.50
2018-03-14T04:10:34.151Z,4.60
2018-03-14T04:13:01.690Z,4.50
2018-03-14T04:15:29.227Z,4.60
2018-03-14T04:17:57.546Z,4.60
2018-03-14T04:20:25.083Z,4.60
2018-03-14T04:22:52.640Z,4.60
2018-03-14T04:25:20.177Z,4.60
2018-03-14T04:27:48.461Z,4.70
2018-03-14T04:30:15.993Z,4.60
2018-03-14T04:32:43.547Z,4.70
2018-03-14T04:35:11.065Z,4.60
2018-03-14T04:37:38.612Z,4.60
2018-03-14T04:40:06.157Z,4.60
2018-03-14T04:42:34.473Z,4.60
2018-03-14T04:45:02.031Z,4.60
2018-03-14T04:47:29.569Z,4.60
2018-03-14T04:49:57.877Z,4.70
2018-03-14T04:52:25.426Z,4.60
2018-03-14T04:54:52.980Z,4.70
2018-03-14T04:57:20.613Z,4.70
2018-03-14T04:59:48.135Z,4.70
2018-03-14T05:02:15.754Z,4.70
2018-03-14T05:04:43.245Z,4.70
2018-03-14T05:07:10.760Z,4.70
2018-03-14T05:09:38.307Z,4.70
2018-03-14T05:12:05.851Z,4.70
2018-03-14T05:14:34.169Z,4.70
2018-03-14T05:17:01.707Z,4.70
2018-03-14T05:19:29.251Z,4.70
2018-03-14T05:21:57.595Z,4.70
2018-03-14T05:24:25.123Z,4.60
2018-03-14T05:26:52.672Z,4.60
2018-03-14T05:29:20.242Z,4.70
2018-03-14T05:31:47.777Z,4.60
2018-03-14T05:34:16.061Z,4.60
2018-03-14T05:36:43.609Z,4.60
2018-03-14T05:39:11.906Z,4.60
2018-03-14T05:41:39.435Z,4.60
2018-03-14T05:44:07.752Z,4.70
2018-03-14T05:46:35.312Z,4.60
2018-03-14T05:49:02.870Z,4.60
2018-03-14T05:51:30.427Z,4.60
2018-03-14T05:53:57.952Z,4.60
2018-03-14T05:56:26.247Z,4.70
2018-03-14T05:58:53.813Z,4.60
2018-03-14T06:01:21.348Z,4.70
2018-03-14T06:03:49.644Z,4.80
2018-03-14T06:06:17.215Z,4.70
2018-03-14T06:08:44.778Z,4.80
2018-03-14T06:11:12.333Z,4.80
2018-03-14T06:13:39.898Z,4.80
2018-03-14T06:16:07.435Z,4.80
2018-03-14T06:18:34.960Z,4.80
2018-03-14T06:21:02.515Z,4.80
2018-03-14T06:23:30.062Z,4.80
2018-03-14T06:25:57.583Z,4.80
2018-03-14T06:28:25.135Z,4.80
2018-03-14T06:30:52.663Z,4.80
2018-03-14T06:33:20.987Z,4.70
2018-03-14T06:35:48.549Z,4.70
2018-03-14T06:38:16.091Z,4.70
2018-03-14T06:40:43.625Z,4.70
2018-03-14T06:43:11.930Z,4.70
2018-03-14T06:45:39.477Z,4.70
2018-03-14T06:48:07.005Z,4.80
2018-03-14T06:50:34.546Z,4.80
2018-03-14T06:53:02.075Z,4.80
2018-03-14T06:55:29.611Z,4.80
2018-03-14T06:57:57.176Z,4.90
2018-03-14T07:00:36.709Z,4.90
2018-03-14T07:03:16.040Z,4.80
2018-03-14T07:05:56.224Z,4.90
2018-03-14T07:08:23.789Z,4.90
2018-03-14T07:10:51.331Z,4.90
2018-03-14T07:13:18.863Z,4.90
2018-03-14T07:15:47.205Z,5.00
2018-03-14T07:18:15.505Z,5.00
2018-03-14T07:20:43.055Z,5.00
2018-03-14T07:23:10.601Z,5.00
2018-03-14T07:25:38.127Z,5.00
2018-03-14T07:28:05.673Z,5.00
2018-03-14T07:30:33.232Z,5.00
2018-03-14T07:33:00.767Z,5.00
2018-03-14T07:35:29.080Z,5.10
2018-03-14T07:37:56.635Z,5.10
2018-03-14T07:40:24.157Z,5.10
2018-03-14T07:42:52.469Z,5.10
2018-03-14T07:45:20.045Z,5.10
2018-03-14T07:47:47.617Z,5.10
2018-03-14T07:50:15.175Z,5.10
2018-03-14T07:52:42.716Z,5.10
2018-03-14T07:55:10.255Z,5.10
2018-03-14T07:57:37.817Z,5.10
2018-03-14T08:00:05.352Z,5.10
2018-03-14T08:02:33.645Z,5.20
2018-03-14T08:05:01.959Z,5.20
2018-03-14T08:07:29.527Z,5.10
2018-03-14T08:09:57.080Z,5.20
2018-03-14T08:12:24.644Z,5.20
2018-03-14T08:14:52.181Z,5.20
2018-03-14T08:17:19.711Z,5.20
2018-03-14T08:19:48.045Z,5.30
2018-03-14T08:22:15.591Z,5.30
2018-03-14T08:24:43.144Z,5.30
2018-03-14T08:27:10.711Z,5.20
2018-03-14T08:29:38.258Z,5.20
2018-03-14T08:32:05.807Z,5.20
2018-03-14T08:34:33.359Z,5.30
2018-03-14T08:37:00.892Z,5.30
2018-03-14T08:39:29.197Z,5.30
2018-03-14T08:41:56.751Z,5.30
2018-03-14T08:44:24.297Z,5.40
2018-03-14T08:46:52.602Z,5.40
2018-03-14T08:49:20.169Z,5.40
2018-03-14T08:51:47.709Z,5.40
2018-03-14T08:54:15.264Z,5.40
2018-03-14T08:56:42.814Z,5.40
2018-03-14T08:59:10.365Z,5.50
2018-03-14T09:01:38.675Z,5.40
2018-03-14T09:04:06.250Z,5.40
2018-03-14T09:06:33.795Z,5.50
2018-03-14T09:09:01.312Z,5.50
2018-03-14T09:11:29.639Z,5.50
2018-03-14T09:13:57.156Z,5.50
2018-03-14T09:16:25.463Z,5.50
2018-03-14T09:18:53.037Z,5.50
2018-03-14T09:21:21.372Z,5.60
2018-03-14T09:23:48.943Z,5.60
2018-03-14T09:26:16.522Z,5.70
2018-03-14T09:28:44.063Z,5.70
2018-03-14T09:31:11.611Z,5.70
2018-03-14T09:33:39.189Z,5.70
2018-03-14T09:36:06.713Z,5.70
2018-03-14T09:38:35.022Z,5.80
2018-03-14T09:41:02.590Z,5.80
2018-03-14T09:43:30.143Z,5.80
2018-03-14T09:45:57.665Z,5.80
2018-03-14T09:48:25.986Z,5.90
2018-03-14T09:50:53.657Z,5.90
2018-03-14T09:53:21.225Z,5.90
2018-03-14T09:55:48.764Z,5.90
2018-03-14T09:58:16.304Z,5.90
2018-03-14T10:00:43.892Z,6.00
2018-03-14T10:03:11.433Z,6.00
2018-03-14T10:05:38.988Z,6.10
2018-03-14T10:08:06.545Z,6.20
2018-03-14T10:10:34.068Z,6.10
2018-03-14T10:13:02.411Z,6.20
2018-03-14T10:15:29.958Z,6.20
2018-03-14T10:17:57.485Z,6.20
2018-03-14T10:20:25.807Z,6.20
2018-03-14T10:22:53.351Z,6.20
2018-03-14T10:25:20.887Z,6.20
2018-03-14T10:27:48.441Z,6.20
2018-03-14T10:30:16.753Z,6.20
2018-03-14T10:32:44.291Z,6.20
2018-03-14T10:35:11.902Z,6.20
2018-03-14T10:37:39.439Z,6.20
2018-03-14T10:40:06.981Z,6.20
2018-03-14T10:42:34.571Z,6.20
2018-03-14T10:45:02.111Z,6.20
2018-03-14T10:47:29.639Z,6.10
2018-03-14T10:49:57.179Z,6.10
2018-03-14T10:52:25.492Z,6.10
2018-03-14T10:54:53.023Z,6.10
2018-03-14T10:57:21.361Z,6.20
2018-03-14T10:59:48.903Z,6.20
2018-03-14T11:02:26.381Z,6.20
2018-03-14T11:04:53.927Z,6.20
2018-03-14T11:07:21.484Z,6.30
2018-03-14T11:09:49.060Z,6.30
2018-03-14T11:12:16.603Z,6.30
2018-03-14T11:14:44.161Z,6.30
2018-03-14T11:17:11.681Z,6.40
2018-03-14T11:19:39.228Z,6.40
2018-03-14T11:22:06.795Z,6.50
2018-03-14T11:24:35.119Z,6.60
2018-03-14T11:27:02.641Z,6.60
2018-03-14T11:29:30.983Z,6.80
2018-03-14T11:31:58.503Z,6.70
2018-03-14T11:34:26.062Z,6.80
2018-03-14T11:36:53.593Z,6.90
2018-03-14T11:39:21.190Z,6.90
2018-03-14T11:41:48.739Z,7.10
2018-03-14T11:44:17.038Z,7.10
2018-03-14T11:46:44.618Z,7.00
2018-03-14T11:49:12.146Z,7.10
2018-03-14T11:51:39.665Z,7.00
2018-03-14T11:54:07.237Z,7.10
2018-03-14T11:56:35.564Z,7.10
2018-03-14T11:59:03.129Z,7.10
2018-03-14T12:01:30.686Z,7.10
2018-03-14T12:03:58.251Z,7.10
2018-03-14T12:06:25.810Z,7.10
2018-03-14T12:08:54.156Z,7.00
2018-03-14T12:11:21.685Z,7.00
2018-03-14T12:13:50.010Z,7.00
2018-03-14T12:16:17.634Z,7.00
2018-03-14T12:18:45.151Z,7.00
2018-03-14T12:21:12.700Z,7.00
2018-03-14T12:23:41.017Z,7.10
2018-03-14T12:26:09.373Z,7.10
2018-03-14T12:28:36.971Z,7.10
2018-03-14T12:31:04.510Z,7.10
2018-03-14T12:33:32.843Z,7.20
2018-03-14T12:36:00.397Z,7.10
2018-03-14T12:38:27.950Z,7.20
2018-03-14T12:40:55.499Z,7.20
2018-03-14T12:43:23.070Z,7.30
2018-03-14T12:45:50.644Z,7.30
2018-03-14T12:48:18.206Z,7.40
2018-03-14T12:50:45.772Z,7.40
2018-03-14T12:53:13.307Z,7.50
2018-03-14T12:55:40.851Z,7.50
2018-03-14T12:58:08.399Z,7.60
2018-03-14T13:00:36.702Z,7.80
2018-03-14T13:03:04.250Z,7.80
2018-03-14T13:05:31.813Z,7.80
2018-03-14T13:07:59.352Z,7.80
2018-03-14T13:10:27.652Z,7.70
2018-03-14T13:12:55.198Z,7.60
2018-03-14T13:15:22.756Z,7.60
2018-03-14T13:17:50.315Z,7.50
2018-03-14T13:20:17.881Z,7.50
2018-03-14T13:22:45.444Z,7.50
2018-03-14T13:25:12.997Z,7.50
2018-03-14T13:27:40.551Z,7.50
2018-03-14T13:30:08.091Z,7.50
2018-03-14T13:32:36.400Z,7.50
2018-03-14T13:35:03.977Z,7.50
2018-03-14T13:37:31.541Z,7.50
2018-03-14T13:39:59.105Z,7.60
2018-03-14T13:42:26.667Z,7.50
2018-03-14T13:44:54.201Z,7.50
2018-03-14T13:47:21.763Z,7.50
2018-03-14T13:49:49.322Z,7.50
2018-03-14T13:52:16.877Z,7.50
2018-03-14T13:54:44.416Z,7.50
2018-03-14T13:57:12.086Z,7.40
2018-03-14T13:59:39.548Z,7.40
2018-03-14T14:02:07.115Z,7.40
2018-03-14T14:04:34.694Z,7.30
2018-03-14T14:07:02.328Z,7.30
2018-03-14T14:09:29.883Z,7.30
2018-03-14T14:11:57.461Z,7.30
2018-03-14T14:14:25.027Z,7.40
2018-03-14T14:16:52.559Z,7.40
2018-03-14T14:19:20.130Z,7.40
2018-03-14T14:21:47.664Z,7.50
2018-03-14T14:24:15.311Z,7.50
2018-03-14T14:26:42.853Z,7.40
2018-03-14T14:29:10.379Z,7.40
2018-03-14T14:31:37.924Z,7.40
2018-03-14T14:34:05.517Z,7.40
2018-03-14T14:36:33.833Z,7.60
2018-03-14T14:39:02.152Z,7.60
2018-03-14T14:41:29.790Z,7.60
2018-03-14T14:43:57.266Z,7.70
2018-03-14T14:46:24.813Z,7.60
2018-03-14T14:48:52.348Z,7.70
2018-03-14T14:51:20.651Z,7.90
2018-03-14T14:53:48.520Z,7.90
2018-03-14T14:56:16.206Z,7.90
2018-03-14T14:58:44.011Z,7.90
2018-03-14T15:01:11.577Z,8.00
2018-03-14T15:03:39.858Z,8.10
2018-03-14T15:06:08.162Z,8.10
2018-03-14T15:08:35.734Z,8.10
2018-03-14T15:11:03.308Z,8.10
2018-03-14T15:13:30.836Z,8.10
2018-03-14T15:15:58.405Z,8.20
2018-03-14T15:18:25.959Z,8.20
2018-03-14T15:20:53.503Z,8.30
2018-03-14T15:23:21.047Z,8.40
2018-03-14T15:25:49.348Z,8.40
2018-03-14T15:28:16.894Z,8.40
2018-03-14T15:30:45.181Z,8.60
2018-03-14T15:33:12.701Z,8.60
2018-03-14T15:35:40.270Z,8.70
2018-03-14T15:38:07.821Z,8.70
2018-03-14T15:40:35.379Z,8.70
2018-03-14T15:43:02.916Z,8.70
2018-03-14T15:45:30.437Z,8.70
2018-03-14T15:47:57.992Z,8.80
2018-03-14T15:50:25.543Z,8.70
2018-03-14T15:52:53.845Z,8.70
2018-03-14T15:55:21.399Z,8.70
2018-03-14T15:57:49.431Z,8.60
2018-03-14T16:00:16.973Z,8.60
2018-03-14T16:02:44.518Z,8.60
2018-03-14T16:05:12.119Z,8.60
2018-03-14T16:07:39.642Z,8.60
2018-03-14T16:10:07.163Z,8.60
2018-03-14T16:12:34.718Z,8.60
2018-03-14T16:15:02.257Z,8.50
2018-03-14T16:17:30.594Z,8.50
2018-03-14T16:19:58.144Z,8.50
2018-03-14T16:22:25.679Z,8.50
2018-03-14T16:24:53.215Z,8.50
2018-03-14T16:27:21.549Z,8.50
2018-03-14T16:29:49.100Z,8.50
2018-03-14T16:32:16.663Z,8.50
2018-03-14T16:34:45.552Z,8.40
2018-03-14T16:37:13.094Z,8.40
2018-03-14T16:39:40.641Z,8.40
2018-03-14T16:42:08.158Z,8.30
2018-03-14T16:44:35.702Z,8.30
2018-03-14T16:47:03.291Z,8.20
2018-03-14T16:49:30.882Z,8.20
2018-03-14T16:51:58.426Z,8.10
2018-03-14T16:54:25.979Z,8.00
2018-03-14T16:56:54.348Z,7.90
2018-03-14T16:59:22.689Z,7.80
2018-03-14T17:01:50.241Z,7.80
2018-03-14T17:04:17.799Z,7.80
2018-03-14T17:06:45.341Z,7.80
2018-03-14T17:09:12.871Z,7.70
2018-03-14T17:11:40.422Z,7.60
2018-03-14T17:14:08.717Z,7.40
2018-03-14T17:16:36.286Z,7.40
2018-03-14T17:19:03.840Z,7.40
2018-03-14T17:21:31.371Z,7.30
2018-03-14T17:23:59.654Z,7.20
2018-03-14T17:26:28.012Z,7.10
2018-03-14T17:28:56.334Z,7.10
2018-03-14T17:31:23.907Z,7.10
2018-03-14T17:33:51.489Z,7.00
2018-03-14T17:36:19.035Z,6.90
2018-03-14T17:38:46.634Z,6.90
2018-03-14T17:41:14.956Z,6.70
2018-03-14T17:43:42.503Z,6.70
2018-03-14T17:46:10.049Z,6.60
2018-03-14T17:48:37.594Z,6.60
2018-03-14T17:51:05.908Z,6.50
2018-03-14T17:53:33.448Z,6.40
2018-03-14T17:56:01.005Z,6.40
2018-03-14T17:58:28.568Z,6.30
2018-03-14T18:00:56.101Z,6.30
2018-03-14T18:03:24.427Z,6.30
2018-03-14T18:05:51.953Z,6.30
2018-03-14T18:08:20.256Z,6.30
2018-03-14T18:10:47.824Z,6.30
2018-03-14T18:13:15.364Z,6.20
2018-03-14T18:15:42.910Z,6.20
2018-03-14T18:18:11.224Z,6.20
2018-03-14T18:20:38.812Z,6.20
2018-03-14T18:23:06.364Z,6.30
2018-03-14T18:25:34.005Z,6.20
2018-03-14T18:28:01.563Z,6.20
2018-03-14T18:30:29.085Z,6.20
2018-03-14T18:32:57.403Z,6.20
2018-03-14T18:35:24.955Z,6.20
2018-03-14T18:37:52.508Z,6.20
2018-03-14T18:40:20.072Z,6.20
2018-03-14T18:42:47.602Z,6.20
2018-03-14T18:45:15.908Z,6.10
2018-03-14T18:47:43.483Z,6.10
2018-03-14T18:50:11.019Z,6.10
2018-03-14T18:52:38.554Z,6.00
2018-03-14T18:55:06.865Z,6.00
2018-03-14T18:57:34.419Z,6.00
2018-03-14T19:00:01.972Z,6.00
2018-03-14T19:02:29.545Z,6.00
2018-03-14T19:04:57.095Z,6.00
2018-03-14T19:07:24.687Z,5.90
2018-03-14T19:09:52.268Z,5.90
2018-03-14T19:12:19.825Z,6.00
2018-03-14T19:14:48.161Z,5.90
2018-03-14T19:17:15.730Z,5.90
2018-03-14T19:19:43.282Z,5.90
2018-03-14T19:22:10.844Z,5.90
2018-03-14T19:24:38.503Z,5.80
2018-03-14T19:27:06.040Z,5.80
2018-03-14T19:29:33.579Z,5.70
2018-03-14T19:32:01.894Z,5.80
2018-03-14T19:34:29.417Z,5.80
2018-03-14T19:36:57.735Z,5.80
2018-03-14T19:39:25.317Z,5.70
2018-03-14T19:41:52.844Z,5.70
2018-03-14T19:44:20.378Z,5.70
2018-03-14T19:46:47.954Z,5.70
2018-03-14T19:49:15.506Z,5.70
2018-03-14T19:51:43.054Z,5.70
2018-03-14T19:54:10.612Z,5.70
2018-03-14T19:56:38.151Z,5.60
2018-03-14T19:59:05.669Z,5.60
2018-03-14T20:01:33.231Z,5.60
2018-03-14T20:04:00.799Z,5.50
2018-03-14T20:06:28.320Z,5.50
2018-03-14T20:08:56.745Z,5.50
2018-03-14T20:11:24.202Z,5.50
2018-03-14T20:13:52.535Z,5.50
2018-03-14T20:16:20.841Z,5.40
2018-03-14T20:18:48.403Z,5.40
2018-03-14T20:21:15.949Z,5.50
2018-03-14T20:23:43.497Z,5.40
2018-03-14T20:26:11.827Z,5.30
2018-03-14T20:28:40.124Z,5.30
2018-03-14T20:33:42.511Z,5.30
2018-03-14T20:36:10.052Z,5.20
2018-03-14T20:38:38.367Z,5.20
2018-03-14T20:41:06.721Z,5.20
2018-03-14T20:43:34.268Z,5.20
2018-03-14T20:46:01.797Z,5.20
2018-03-14T20:48:29.361Z,5.20
2018-03-14T20:50:56.892Z,5.20
2018-03-14T20:53:25.203Z,5.20
2018-03-14T20:55:52.786Z,5.20
2018-03-14T20:58:20.333Z,5.10
2018-03-14T21:00:47.883Z,5.20
2018-03-14T21:03:15.428Z,5.20
2018-03-14T21:05:42.953Z,5.20
2018-03-14T21:08:10.473Z,5.10
2018-03-14T21:10:38.025Z,5.10
2018-03-14T21:13:05.597Z,5.10
2018-03-14T21:15:33.139Z,5.10
2018-03-14T21:18:00.711Z,5.20
2018-03-14T21:20:28.251Z,5.20
2018-03-14T21:22:55.787Z,5.20
2018-03-14T21:25:24.107Z,5.10
2018-03-14T21:27:51.654Z,5.10
2018-03-14T21:30:19.187Z,5.10
2018-03-14T21:32:47.017Z,5.10
2018-03-14T21:35:14.538Z,5.00
2018-03-14T21:37:42.074Z,5.00
2018-03-14T21:40:09.613Z,5.00
2018-03-14T21:42:37.926Z,5.00
2018-03-14T21:45:05.469Z,5.00
2018-03-14T21:47:33.036Z,5.00
2018-03-14T21:50:00.559Z,4.90
2018-03-14T21:52:28.102Z,4.90
2018-03-14T21:54:55.675Z,4.80
2018-03-14T21:57:23.215Z,4.80
2018-03-14T21:59:51.521Z,4.70
2018-03-14T22:02:19.862Z,4.70
2018-03-14T22:04:47.426Z,4.70
2018-03-14T22:07:14.965Z,4.70
2018-03-14T22:09:42.546Z,4.70
2018-03-14T22:12:10.138Z,4.70
2018-03-14T22:14:38.452Z,4.70
2018-03-14T22:17:06.043Z,4.70
2018-03-14T22:19:34.363Z,4.70
2018-03-14T22:22:02.690Z,4.60
2018-03-14T22:24:30.248Z,4.60
2018-03-14T22:26:57.865Z,4.60
2018-03-14T22:29:26.167Z,4.50
2018-03-14T22:31:53.757Z,4.50
2018-03-14T22:34:21.310Z,4.50
2018-03-14T22:36:48.849Z,4.50
2018-03-14T22:39:16.412Z,4.50
2018-03-14T22:41:43.975Z,4.50
2018-03-14T22:44:11.512Z,4.50
2018-03-14T22:46:39.087Z,4.50
2018-03-14T22:49:06.660Z,4.60
2018-03-14T22:51:35.259Z,4.60
2018-03-14T22:54:02.839Z,4.50
2018-03-14T22:56:30.375Z,4.40
2018-03-14T22:58:58.748Z,4.40
2018-03-14T23:01:26.360Z,4.40
2018-03-14T23:03:54.677Z,4.40
2018-03-14T23:06:22.261Z,4.40
2018-03-14T23:08:49.823Z,4.40
2018-03-14T23:11:17.392Z,4.40
2018-03-14T23:13:44.949Z,4.50
2018-03-14T23:16:12.507Z,4.60
2018-03-14T23:18:40.030Z,4.60
2018-03-14T23:21:07.583Z,4.60
2018-03-14T23:23:35.282Z,4.50
2018-03-14T23:26:03.075Z,4.50
2018-03-14T23:28:30.621Z,4.50
2018-03-14T23:30:58.180Z,4.60
2018-03-14T23:33:25.697Z,4.50
2018-03-14T23:35:53.213Z,4.60
2018-03-14T23:38:20.801Z,4.50
2018-03-14T23:40:48.353Z,4.40
2018-03-14T23:43:16.766Z,4.30
2018-03-14T23:45:44.305Z,4.30
2018-03-14T23:48:12.590Z,4.30
2018-03-14T23:50:40.136Z,4.30
2018-03-14T23:53:08.441Z,4.10
2018-03-14T23:55:35.971Z,4.00
2018-03-14T23:58:04.274Z,4.00
